sensor_id;sensor_type;location;lat;lon;timestamp;P1;durP1;ratioP1;P2;durP2;ratioP2
69775;SDS011;57049;51.450;-2.516;2022-07-23T00:00:14;9.48;;;2.33;;
69775;SDS011;57049;51.450;-2.516;2022-07-23T00:02:41;7.78;;;2.30;;
69775;SDS011;57049;51.450;-2.516;2022-07-23T00:05:06;9.10;;;2.67;;
69775;SDS011;57049;51.450;-2.516;2022-07-23T00:07:33;7.38;;;2.38;;
69775;SDS011;57049;51.450;-2.516;2022-07-23T00:09:58;9.73;;;2.55;;
69775;SDS011;57049;51.450;-2.516;2022-07-23T00:12:24;10.07;;;2.50;;
69775;SDS011;57049;51.450;-2.516;2022-07-23T00:14:50;8.27;;;2.35;;
69775;SDS011;57049;51.450;-2.516;2022-07-23T00:17:15;7.33;;;2.23;;
69775;SDS011;57049;51.450;-2.516;2022-07-23T00:19:41;13.00;;;2.72;;
69775;SDS011;57049;51.450;-2.516;2022-07-23T00:22:06;8.70;;;2.70;;
69775;SDS011;57049;51.450;-2.516;2022-07-23T00:24:32;8.33;;;2.80;;
69775;SDS011;57049;51.450;-2.516;2022-07-23T00:26:57;10.03;;;2.70;;
69775;SDS011;57049;51.450;-2.516;2022-07-23T00:29:22;7.10;;;2.60;;
69775;SDS011;57049;51.450;-2.516;2022-07-23T00:31:48;7.13;;;2.70;;
69775;SDS011;57049;51.450;-2.516;2022-07-23T00:34:13;9.63;;;3.20;;
69775;SDS011;57049;51.450;-2.516;2022-07-23T00:36:39;8.60;;;2.70;;
69775;SDS011;57049;51.450;-2.516;2022-07-23T00:39:04;11.02;;;3.03;;
69775;SDS011;57049;51.450;-2.516;2022-07-23T00:41:30;10.80;;;2.97;;
69775;SDS011;57049;51.450;-2.516;2022-07-23T00:43:55;8.35;;;2.95;;
69775;SDS011;57049;51.450;-2.516;2022-07-23T00:46:21;9.60;;;2.93;;
69775;SDS011;57049;51.450;-2.516;2022-07-23T00:48:48;10.32;;;2.80;;
69775;SDS011;57049;51.450;-2.516;2022-07-23T00:51:16;8.52;;;2.90;;
69775;SDS011;57049;51.450;-2.516;2022-07-23T00:53:43;11.30;;;3.00;;
69775;SDS011;57049;51.450;-2.516;2022-07-23T00:56:09;9.25;;;2.60;;
69775;SDS011;57049;51.450;-2.516;2022-07-23T00:58:35;11.55;;;2.78;;
69775;SDS011;57049;51.450;-2.516;2022-07-23T01:01:01;9.23;;;2.80;;
69775;SDS011;57049;51.450;-2.516;2022-07-23T01:03:27;9.83;;;3.30;;
69775;SDS011;57049;51.450;-2.516;2022-07-23T01:05:53;10.95;;;3.03;;
69775;SDS011;57049;51.450;-2.516;2022-07-23T01:08:18;9.60;;;2.80;;
69775;SDS011;57049;51.450;-2.516;2022-07-23T01:10:46;10.75;;;3.22;;
69775;SDS011;57049;51.450;-2.516;2022-07-23T01:13:13;10.52;;;3.38;;
69775;SDS011;57049;51.450;-2.516;2022-07-23T01:15:38;7.53;;;3.30;;
69775;SDS011;57049;51.450;-2.516;2022-07-23T01:18:04;9.50;;;3.05;;
69775;SDS011;57049;51.450;-2.516;2022-07-23T01:20:31;10.88;;;2.95;;
69775;SDS011;57049;51.450;-2.516;2022-07-23T01:22:57;9.30;;;2.83;;
69775;SDS011;57049;51.450;-2.516;2022-07-23T01:25:23;8.18;;;2.72;;
69775;SDS011;57049;51.450;-2.516;2022-07-23T01:27:49;7.72;;;2.72;;
69775;SDS011;57049;51.450;-2.516;2022-07-23T01:30:17;8.40;;;2.80;;
69775;SDS011;57049;51.450;-2.516;2022-07-23T01:32:43;10.37;;;2.97;;
69775;SDS011;57049;51.450;-2.516;2022-07-23T01:35:08;11.40;;;2.80;;
69775;SDS011;57049;51.450;-2.516;2022-07-23T01:37:34;9.10;;;2.50;;
69775;SDS011;57049;51.450;-2.516;2022-07-23T01:40:00;16.13;;;2.90;;
69775;SDS011;57049;51.450;-2.516;2022-07-23T01:42:26;11.82;;;3.40;;
69775;SDS011;57049;51.450;-2.516;2022-07-23T01:44:51;10.30;;;3.17;;
69775;SDS011;57049;51.450;-2.516;2022-07-23T01:47:17;8.23;;;2.73;;
69775;SDS011;57049;51.450;-2.516;2022-07-23T01:49:42;8.95;;;2.75;;
69775;SDS011;57049;51.450;-2.516;2022-07-23T01:52:08;10.27;;;2.90;;
69775;SDS011;57049;51.450;-2.516;2022-07-23T01:54:36;8.95;;;2.70;;
69775;SDS011;57049;51.450;-2.516;2022-07-23T01:57:04;11.35;;;3.08;;
69775;SDS011;57049;51.450;-2.516;2022-07-23T01:59:30;9.35;;;2.78;;
69775;SDS011;57049;51.450;-2.516;2022-07-23T02:01:56;14.30;;;3.00;;
69775;SDS011;57049;51.450;-2.516;2022-07-23T02:04:22;7.95;;;2.42;;
69775;SDS011;57049;51.450;-2.516;2022-07-23T02:06:49;8.80;;;2.70;;
69775;SDS011;57049;51.450;-2.516;2022-07-23T02:09:15;8.77;;;2.83;;
69775;SDS011;57049;51.450;-2.516;2022-07-23T02:11:41;10.90;;;2.80;;
69775;SDS011;57049;51.450;-2.516;2022-07-23T02:14:06;7.77;;;2.60;;
69775;SDS011;57049;51.450;-2.516;2022-07-23T02:16:32;8.43;;;3.10;;
69775;SDS011;57049;51.450;-2.516;2022-07-23T02:18:58;7.77;;;2.63;;
69775;SDS011;57049;51.450;-2.516;2022-07-23T02:21:23;9.60;;;2.70;;
69775;SDS011;57049;51.450;-2.516;2022-07-23T02:23:49;8.30;;;2.70;;
69775;SDS011;57049;51.450;-2.516;2022-07-23T02:26:14;11.63;;;3.10;;
69775;SDS011;57049;51.450;-2.516;2022-07-23T02:28:40;7.70;;;2.50;;
69775;SDS011;57049;51.450;-2.516;2022-07-23T02:31:05;10.40;;;2.80;;
69775;SDS011;57049;51.450;-2.516;2022-07-23T02:33:31;10.63;;;3.20;;
69775;SDS011;57049;51.450;-2.516;2022-07-23T02:35:57;9.10;;;3.10;;
69775;SDS011;57049;51.450;-2.516;2022-07-23T02:38:23;8.20;;;2.47;;
69775;SDS011;57049;51.450;-2.516;2022-07-23T02:40:48;10.03;;;2.90;;
69775;SDS011;57049;51.450;-2.516;2022-07-23T02:43:13;8.47;;;2.80;;
69775;SDS011;57049;51.450;-2.516;2022-07-23T02:45:39;9.53;;;3.13;;
69775;SDS011;57049;51.450;-2.516;2022-07-23T02:48:04;8.77;;;2.75;;
69775;SDS011;57049;51.450;-2.516;2022-07-23T02:50:30;9.83;;;2.83;;
69775;SDS011;57049;51.450;-2.516;2022-07-23T02:52:55;10.50;;;3.13;;
69775;SDS011;57049;51.450;-2.516;2022-07-23T02:55:21;10.82;;;3.45;;
69775;SDS011;57049;51.450;-2.516;2022-07-23T02:57:46;15.00;;;3.07;;
69775;SDS011;57049;51.450;-2.516;2022-07-23T03:00:12;12.47;;;3.07;;
69775;SDS011;57049;51.450;-2.516;2022-07-23T03:02:37;9.20;;;3.20;;
69775;SDS011;57049;51.450;-2.516;2022-07-23T03:05:03;9.93;;;3.00;;
69775;SDS011;57049;51.450;-2.516;2022-07-23T03:07:29;10.98;;;3.17;;
69775;SDS011;57049;51.450;-2.516;2022-07-23T03:09:54;9.93;;;3.03;;
69775;SDS011;57049;51.450;-2.516;2022-07-23T03:12:19;8.30;;;3.40;;
69775;SDS011;57049;51.450;-2.516;2022-07-23T03:14:45;8.27;;;2.97;;
69775;SDS011;57049;51.450;-2.516;2022-07-23T03:17:10;8.95;;;3.10;;
69775;SDS011;57049;51.450;-2.516;2022-07-23T03:19:36;10.80;;;2.93;;
69775;SDS011;57049;51.450;-2.516;2022-07-23T03:22:02;8.90;;;3.30;;
69775;SDS011;57049;51.450;-2.516;2022-07-23T03:24:28;11.53;;;3.60;;
69775;SDS011;57049;51.450;-2.516;2022-07-23T03:27:13;11.60;;;3.38;;
69775;SDS011;57049;51.450;-2.516;2022-07-23T03:29:39;10.13;;;3.00;;
69775;SDS011;57049;51.450;-2.516;2022-07-23T03:32:04;8.18;;;2.85;;
69775;SDS011;57049;51.450;-2.516;2022-07-23T03:34:30;8.27;;;2.97;;
69775;SDS011;57049;51.450;-2.516;2022-07-23T03:36:55;9.07;;;3.00;;
69775;SDS011;57049;51.450;-2.516;2022-07-23T03:39:21;10.97;;;2.63;;
69775;SDS011;57049;51.450;-2.516;2022-07-23T03:41:46;9.70;;;2.77;;
69775;SDS011;57049;51.450;-2.516;2022-07-23T03:44:12;7.20;;;2.67;;
69775;SDS011;57049;51.450;-2.516;2022-07-23T03:46:37;9.60;;;2.92;;
69775;SDS011;57049;51.450;-2.516;2022-07-23T03:49:02;10.23;;;3.10;;
69775;SDS011;57049;51.450;-2.516;2022-07-23T03:51:28;9.37;;;3.20;;
69775;SDS011;57049;51.450;-2.516;2022-07-23T03:53:53;10.63;;;3.23;;
69775;SDS011;57049;51.450;-2.516;2022-07-23T03:56:20;10.05;;;3.00;;
69775;SDS011;57049;51.450;-2.516;2022-07-23T03:58:45;9.90;;;2.83;;
69775;SDS011;57049;51.450;-2.516;2022-07-23T04:01:11;10.37;;;3.37;;
69775;SDS011;57049;51.450;-2.516;2022-07-23T04:03:37;9.23;;;2.73;;
69775;SDS011;57049;51.450;-2.516;2022-07-23T04:06:02;10.60;;;2.70;;
69775;SDS011;57049;51.450;-2.516;2022-07-23T04:08:28;8.00;;;2.33;;
69775;SDS011;57049;51.450;-2.516;2022-07-23T04:10:53;7.28;;;2.40;;
69775;SDS011;57049;51.450;-2.516;2022-07-23T04:13:20;9.75;;;2.53;;
69775;SDS011;57049;51.450;-2.516;2022-07-23T04:15:45;7.43;;;2.57;;
69775;SDS011;57049;51.450;-2.516;2022-07-23T04:18:10;8.63;;;2.53;;
69775;SDS011;57049;51.450;-2.516;2022-07-23T04:20:36;8.80;;;2.90;;
69775;SDS011;57049;51.450;-2.516;2022-07-23T04:23:01;8.55;;;2.72;;
69775;SDS011;57049;51.450;-2.516;2022-07-23T04:25:27;7.97;;;2.60;;
69775;SDS011;57049;51.450;-2.516;2022-07-23T04:27:52;9.40;;;2.60;;
69775;SDS011;57049;51.450;-2.516;2022-07-23T04:30:18;8.17;;;2.53;;
69775;SDS011;57049;51.450;-2.516;2022-07-23T04:32:43;6.68;;;2.38;;
69775;SDS011;57049;51.450;-2.516;2022-07-23T04:35:09;7.43;;;2.77;;
69775;SDS011;57049;51.450;-2.516;2022-07-23T04:37:34;11.10;;;2.93;;
69775;SDS011;57049;51.450;-2.516;2022-07-23T04:39:59;7.90;;;2.50;;
69775;SDS011;57049;51.450;-2.516;2022-07-23T04:42:25;9.77;;;2.45;;
69775;SDS011;57049;51.450;-2.516;2022-07-23T04:44:50;7.90;;;2.70;;
69775;SDS011;57049;51.450;-2.516;2022-07-23T04:47:16;9.13;;;2.90;;
69775;SDS011;57049;51.450;-2.516;2022-07-23T04:49:41;9.27;;;2.90;;
69775;SDS011;57049;51.450;-2.516;2022-07-23T04:52:07;8.70;;;2.70;;
69775;SDS011;57049;51.450;-2.516;2022-07-23T04:54:32;7.40;;;2.80;;
69775;SDS011;57049;51.450;-2.516;2022-07-23T04:56:58;7.95;;;2.85;;
69775;SDS011;57049;51.450;-2.516;2022-07-23T04:59:23;10.27;;;3.00;;
69775;SDS011;57049;51.450;-2.516;2022-07-23T05:01:48;8.73;;;2.97;;
69775;SDS011;57049;51.450;-2.516;2022-07-23T05:04:14;9.67;;;2.90;;
69775;SDS011;57049;51.450;-2.516;2022-07-23T05:06:39;10.43;;;2.72;;
69775;SDS011;57049;51.450;-2.516;2022-07-23T05:09:05;10.80;;;3.27;;
69775;SDS011;57049;51.450;-2.516;2022-07-23T05:11:30;10.30;;;3.17;;
69775;SDS011;57049;51.450;-2.516;2022-07-23T05:13:56;7.50;;;2.70;;
69775;SDS011;57049;51.450;-2.516;2022-07-23T05:16:21;8.40;;;2.90;;
69775;SDS011;57049;51.450;-2.516;2022-07-23T05:18:47;7.57;;;2.43;;
69775;SDS011;57049;51.450;-2.516;2022-07-23T05:21:12;8.17;;;2.90;;
69775;SDS011;57049;51.450;-2.516;2022-07-23T05:23:38;9.23;;;3.17;;
69775;SDS011;57049;51.450;-2.516;2022-07-23T05:26:03;8.40;;;2.53;;
69775;SDS011;57049;51.450;-2.516;2022-07-23T05:28:28;8.60;;;3.07;;
69775;SDS011;57049;51.450;-2.516;2022-07-23T05:30:54;7.07;;;2.80;;
69775;SDS011;57049;51.450;-2.516;2022-07-23T05:33:19;8.65;;;2.78;;
69775;SDS011;57049;51.450;-2.516;2022-07-23T05:35:45;9.73;;;2.83;;
69775;SDS011;57049;51.450;-2.516;2022-07-23T05:38:10;8.77;;;2.90;;
69775;SDS011;57049;51.450;-2.516;2022-07-23T05:40:36;9.85;;;2.55;;
69775;SDS011;57049;51.450;-2.516;2022-07-23T05:43:01;7.43;;;2.47;;
69775;SDS011;57049;51.450;-2.516;2022-07-23T05:45:27;10.07;;;2.90;;
69775;SDS011;57049;51.450;-2.516;2022-07-23T05:47:52;9.73;;;2.90;;
69775;SDS011;57049;51.450;-2.516;2022-07-23T05:50:18;7.80;;;2.27;;
69775;SDS011;57049;51.450;-2.516;2022-07-23T05:52:43;7.23;;;2.30;;
69775;SDS011;57049;51.450;-2.516;2022-07-23T05:55:09;6.60;;;2.30;;
69775;SDS011;57049;51.450;-2.516;2022-07-23T05:57:36;7.57;;;2.20;;
69775;SDS011;57049;51.450;-2.516;2022-07-23T06:00:03;7.82;;;1.88;;
69775;SDS011;57049;51.450;-2.516;2022-07-23T06:02:29;8.32;;;2.50;;
69775;SDS011;57049;51.450;-2.516;2022-07-23T06:04:55;6.00;;;2.23;;
69775;SDS011;57049;51.450;-2.516;2022-07-23T06:07:20;6.50;;;2.10;;
69775;SDS011;57049;51.450;-2.516;2022-07-23T06:09:46;6.43;;;2.27;;
69775;SDS011;57049;51.450;-2.516;2022-07-23T06:12:12;6.03;;;2.03;;
69775;SDS011;57049;51.450;-2.516;2022-07-23T06:14:38;6.60;;;1.90;;
69775;SDS011;57049;51.450;-2.516;2022-07-23T06:17:03;6.60;;;2.10;;
69775;SDS011;57049;51.450;-2.516;2022-07-23T06:19:28;8.03;;;2.00;;
69775;SDS011;57049;51.450;-2.516;2022-07-23T06:21:54;8.00;;;2.00;;
69775;SDS011;57049;51.450;-2.516;2022-07-23T06:24:19;6.22;;;2.17;;
69775;SDS011;57049;51.450;-2.516;2022-07-23T06:26:45;6.07;;;2.30;;
69775;SDS011;57049;51.450;-2.516;2022-07-23T06:29:10;7.60;;;2.00;;
69775;SDS011;57049;51.450;-2.516;2022-07-23T06:31:36;6.30;;;2.20;;
69775;SDS011;57049;51.450;-2.516;2022-07-23T06:34:01;5.97;;;2.13;;
69775;SDS011;57049;51.450;-2.516;2022-07-23T06:36:27;6.90;;;2.20;;
69775;SDS011;57049;51.450;-2.516;2022-07-23T06:38:52;7.88;;;2.28;;
69775;SDS011;57049;51.450;-2.516;2022-07-23T06:41:18;4.53;;;1.90;;
69775;SDS011;57049;51.450;-2.516;2022-07-23T06:43:43;6.93;;;2.03;;
69775;SDS011;57049;51.450;-2.516;2022-07-23T06:46:09;5.40;;;2.10;;
69775;SDS011;57049;51.450;-2.516;2022-07-23T06:48:35;6.77;;;2.43;;
69775;SDS011;57049;51.450;-2.516;2022-07-23T06:51:01;6.82;;;2.13;;
69775;SDS011;57049;51.450;-2.516;2022-07-23T06:53:27;6.43;;;2.25;;
69775;SDS011;57049;51.450;-2.516;2022-07-23T06:55:52;6.13;;;2.00;;
69775;SDS011;57049;51.450;-2.516;2022-07-23T06:58:18;6.03;;;2.63;;
69775;SDS011;57049;51.450;-2.516;2022-07-23T07:00:44;5.10;;;2.10;;
69775;SDS011;57049;51.450;-2.516;2022-07-23T07:03:09;6.67;;;2.20;;
69775;SDS011;57049;51.450;-2.516;2022-07-23T07:05:35;5.82;;;2.50;;
69775;SDS011;57049;51.450;-2.516;2022-07-23T07:08:00;5.93;;;2.43;;
69775;SDS011;57049;51.450;-2.516;2022-07-23T07:10:26;5.33;;;2.33;;
69775;SDS011;57049;51.450;-2.516;2022-07-23T07:12:51;6.43;;;2.65;;
69775;SDS011;57049;51.450;-2.516;2022-07-23T07:15:17;4.93;;;2.27;;
69775;SDS011;57049;51.450;-2.516;2022-07-23T07:17:43;5.83;;;2.27;;
69775;SDS011;57049;51.450;-2.516;2022-07-23T07:20:08;5.68;;;2.33;;
69775;SDS011;57049;51.450;-2.516;2022-07-23T07:22:35;3.72;;;1.65;;
69775;SDS011;57049;51.450;-2.516;2022-07-23T07:25:01;5.13;;;2.13;;
69775;SDS011;57049;51.450;-2.516;2022-07-23T07:27:26;4.03;;;2.17;;
69775;SDS011;57049;51.450;-2.516;2022-07-23T07:29:51;5.57;;;2.33;;
69775;SDS011;57049;51.450;-2.516;2022-07-23T07:32:17;4.43;;;2.10;;
69775;SDS011;57049;51.450;-2.516;2022-07-23T07:34:42;5.30;;;1.80;;
69775;SDS011;57049;51.450;-2.516;2022-07-23T07:37:08;3.72;;;1.70;;
69775;SDS011;57049;51.450;-2.516;2022-07-23T07:39:33;6.83;;;1.80;;
69775;SDS011;57049;51.450;-2.516;2022-07-23T07:41:59;4.80;;;1.48;;
69775;SDS011;57049;51.450;-2.516;2022-07-23T07:44:24;5.37;;;1.77;;
69775;SDS011;57049;51.450;-2.516;2022-07-23T07:46:50;3.67;;;1.40;;
69775;SDS011;57049;51.450;-2.516;2022-07-23T07:49:15;4.40;;;1.30;;
69775;SDS011;57049;51.450;-2.516;2022-07-23T07:51:44;4.35;;;1.42;;
69775;SDS011;57049;51.450;-2.516;2022-07-23T07:54:10;3.40;;;1.40;;
69775;SDS011;57049;51.450;-2.516;2022-07-23T07:56:35;5.10;;;1.60;;
69775;SDS011;57049;51.450;-2.516;2022-07-23T07:59:01;3.83;;;1.85;;
69775;SDS011;57049;51.450;-2.516;2022-07-23T08:01:26;4.20;;;1.70;;
69775;SDS011;57049;51.450;-2.516;2022-07-23T08:03:52;4.03;;;1.73;;
69775;SDS011;57049;51.450;-2.516;2022-07-23T08:06:17;3.55;;;1.98;;
69775;SDS011;57049;51.450;-2.516;2022-07-23T08:08:43;3.90;;;1.67;;
69775;SDS011;57049;51.450;-2.516;2022-07-23T08:11:08;3.67;;;1.60;;
69775;SDS011;57049;51.450;-2.516;2022-07-23T08:13:34;3.38;;;1.55;;
69775;SDS011;57049;51.450;-2.516;2022-07-23T08:15:59;4.50;;;1.63;;
69775;SDS011;57049;51.450;-2.516;2022-07-23T08:18:25;4.30;;;2.10;;
69775;SDS011;57049;51.450;-2.516;2022-07-23T08:20:50;4.97;;;3.17;;
69775;SDS011;57049;51.450;-2.516;2022-07-23T08:23:16;3.80;;;2.00;;
69775;SDS011;57049;51.450;-2.516;2022-07-23T08:25:44;3.60;;;1.67;;
69775;SDS011;57049;51.450;-2.516;2022-07-23T08:28:10;4.18;;;1.70;;
69775;SDS011;57049;51.450;-2.516;2022-07-23T08:30:37;4.22;;;1.60;;
69775;SDS011;57049;51.450;-2.516;2022-07-23T08:35:43;4.50;;;1.63;;
69775;SDS011;57049;51.450;-2.516;2022-07-23T08:38:14;3.10;;;1.23;;
69775;SDS011;57049;51.450;-2.516;2022-07-23T08:40:41;4.00;;;1.58;;
69775;SDS011;57049;51.450;-2.516;2022-07-23T08:43:12;3.88;;;1.45;;
69775;SDS011;57049;51.450;-2.516;2022-07-23T08:45:48;3.13;;;0.90;;
69775;SDS011;57049;51.450;-2.516;2022-07-23T08:50:45;3.22;;;1.00;;
69775;SDS011;57049;51.450;-2.516;2022-07-23T08:53:15;3.42;;;0.90;;
69775;SDS011;57049;51.450;-2.516;2022-07-23T08:55:49;2.60;;;0.50;;
69775;SDS011;57049;51.450;-2.516;2022-07-23T08:58:17;3.40;;;0.80;;
69775;SDS011;57049;51.450;-2.516;2022-07-23T09:00:42;3.92;;;0.70;;
69775;SDS011;57049;51.450;-2.516;2022-07-23T09:03:21;3.35;;;1.00;;
69775;SDS011;57049;51.450;-2.516;2022-07-23T09:05:54;3.72;;;1.30;;
69775;SDS011;57049;51.450;-2.516;2022-07-23T09:08:25;3.50;;;0.73;;
69775;SDS011;57049;51.450;-2.516;2022-07-23T09:11:02;2.95;;;0.65;;
69775;SDS011;57049;51.450;-2.516;2022-07-23T09:13:34;2.70;;;0.47;;
69775;SDS011;57049;51.450;-2.516;2022-07-23T09:24:03;4.15;;;1.27;;
69775;SDS011;57049;51.450;-2.516;2022-07-23T09:29:14;3.75;;;0.60;;
69775;SDS011;57049;51.450;-2.516;2022-07-23T09:31:50;2.83;;;0.50;;
69775;SDS011;57049;51.450;-2.516;2022-07-23T09:36:45;3.42;;;0.70;;
69775;SDS011;57049;51.450;-2.516;2022-07-23T09:39:12;3.60;;;0.90;;
69775;SDS011;57049;51.450;-2.516;2022-07-23T09:41:40;3.97;;;0.80;;
69775;SDS011;57049;51.450;-2.516;2022-07-23T09:44:11;3.28;;;0.73;;
69775;SDS011;57049;51.450;-2.516;2022-07-23T09:46:44;3.40;;;0.80;;
69775;SDS011;57049;51.450;-2.516;2022-07-23T09:49:21;3.40;;;0.80;;
69775;SDS011;57049;51.450;-2.516;2022-07-23T09:51:49;3.07;;;0.50;;
69775;SDS011;57049;51.450;-2.516;2022-07-23T09:57:07;4.75;;;1.00;;
69775;SDS011;57049;51.450;-2.516;2022-07-23T09:59:42;3.40;;;1.00;;
69775;SDS011;57049;51.450;-2.516;2022-07-23T10:02:09;4.93;;;1.00;;
69775;SDS011;57049;51.450;-2.516;2022-07-23T10:04:37;3.57;;;0.63;;
69775;SDS011;57049;51.450;-2.516;2022-07-23T10:07:04;3.40;;;0.75;;
69775;SDS011;57049;51.450;-2.516;2022-07-23T10:09:33;3.85;;;0.80;;
69775;SDS011;57049;51.450;-2.516;2022-07-23T10:12:01;4.22;;;0.90;;
69775;SDS011;57049;51.450;-2.516;2022-07-23T10:14:47;2.90;;;0.73;;
69775;SDS011;57049;51.450;-2.516;2022-07-23T10:17:13;3.50;;;0.90;;
69775;SDS011;57049;51.450;-2.516;2022-07-23T10:19:39;3.03;;;0.70;;
69775;SDS011;57049;51.450;-2.516;2022-07-23T10:22:21;2.70;;;0.70;;
69775;SDS011;57049;51.450;-2.516;2022-07-23T10:24:52;3.25;;;0.90;;
69775;SDS011;57049;51.450;-2.516;2022-07-23T10:27:27;4.28;;;1.15;;
69775;SDS011;57049;51.450;-2.516;2022-07-23T10:35:50;4.00;;;0.70;;
69775;SDS011;57049;51.450;-2.516;2022-07-23T10:41:30;3.67;;;0.95;;
69775;SDS011;57049;51.450;-2.516;2022-07-23T10:49:32;3.20;;;0.73;;
69775;SDS011;57049;51.450;-2.516;2022-07-23T10:54:39;2.97;;;0.70;;
69775;SDS011;57049;51.450;-2.516;2022-07-23T10:57:09;5.25;;;1.15;;
69775;SDS011;57049;51.450;-2.516;2022-07-23T11:02:40;3.43;;;0.90;;
69775;SDS011;57049;51.450;-2.516;2022-07-23T11:05:11;5.07;;;1.10;;
69775;SDS011;57049;51.450;-2.516;2022-07-23T11:10:47;4.00;;;1.15;;
69775;SDS011;57049;51.450;-2.516;2022-07-23T11:16:07;3.60;;;1.00;;
69775;SDS011;57049;51.450;-2.516;2022-07-23T11:31:52;3.58;;;0.73;;
69775;SDS011;57049;51.450;-2.516;2022-07-23T11:40:00;3.47;;;0.70;;
69775;SDS011;57049;51.450;-2.516;2022-07-23T11:42:27;3.17;;;0.80;;
69775;SDS011;57049;51.450;-2.516;2022-07-23T11:44:53;4.18;;;0.85;;
69775;SDS011;57049;51.450;-2.516;2022-07-23T11:47:22;3.90;;;0.80;;
69775;SDS011;57049;51.450;-2.516;2022-07-23T11:49:53;4.97;;;0.93;;
69775;SDS011;57049;51.450;-2.516;2022-07-23T11:52:20;4.35;;;1.15;;
69775;SDS011;57049;51.450;-2.516;2022-07-23T11:54:51;3.80;;;1.00;;
69775;SDS011;57049;51.450;-2.516;2022-07-23T11:57:20;4.22;;;1.20;;
69775;SDS011;57049;51.450;-2.516;2022-07-23T11:59:50;4.80;;;1.10;;
69775;SDS011;57049;51.450;-2.516;2022-07-23T12:02:19;5.00;;;1.20;;
69775;SDS011;57049;51.450;-2.516;2022-07-23T12:04:45;4.03;;;1.20;;
69775;SDS011;57049;51.450;-2.516;2022-07-23T12:07:31;3.47;;;1.17;;
69775;SDS011;57049;51.450;-2.516;2022-07-23T12:10:09;3.70;;;1.08;;
69775;SDS011;57049;51.450;-2.516;2022-07-23T12:12:39;4.88;;;1.50;;
69775;SDS011;57049;51.450;-2.516;2022-07-23T12:15:28;4.25;;;1.27;;
69775;SDS011;57049;51.450;-2.516;2022-07-23T12:17:56;4.57;;;1.13;;
69775;SDS011;57049;51.450;-2.516;2022-07-23T12:20:30;5.77;;;1.53;;
69775;SDS011;57049;51.450;-2.516;2022-07-23T12:22:59;4.82;;;1.83;;
69775;SDS011;57049;51.450;-2.516;2022-07-23T12:25:27;4.38;;;1.40;;
69775;SDS011;57049;51.450;-2.516;2022-07-23T12:28:28;4.97;;;1.65;;
69775;SDS011;57049;51.450;-2.516;2022-07-23T12:30:56;4.40;;;1.50;;
69775;SDS011;57049;51.450;-2.516;2022-07-23T12:36:04;3.85;;;1.17;;
69775;SDS011;57049;51.450;-2.516;2022-07-23T12:41:04;4.95;;;1.30;;
69775;SDS011;57049;51.450;-2.516;2022-07-23T12:43:31;5.40;;;1.10;;
69775;SDS011;57049;51.450;-2.516;2022-07-23T12:46:08;5.43;;;1.40;;
69775;SDS011;57049;51.450;-2.516;2022-07-23T12:51:17;4.30;;;0.93;;
69775;SDS011;57049;51.450;-2.516;2022-07-23T12:53:49;4.60;;;1.23;;
69775;SDS011;57049;51.450;-2.516;2022-07-23T12:56:20;4.57;;;1.10;;
69775;SDS011;57049;51.450;-2.516;2022-07-23T13:03:54;5.80;;;1.43;;
69775;SDS011;57049;51.450;-2.516;2022-07-23T13:06:25;4.97;;;1.55;;
69775;SDS011;57049;51.450;-2.516;2022-07-23T13:08:52;5.15;;;1.30;;
69775;SDS011;57049;51.450;-2.516;2022-07-23T13:11:17;4.10;;;1.37;;
69775;SDS011;57049;51.450;-2.516;2022-07-23T13:13:43;4.33;;;1.30;;
69775;SDS011;57049;51.450;-2.516;2022-07-23T13:16:09;5.33;;;1.67;;
69775;SDS011;57049;51.450;-2.516;2022-07-23T13:18:34;5.93;;;1.40;;
69775;SDS011;57049;51.450;-2.516;2022-07-23T13:21:00;4.32;;;1.30;;
69775;SDS011;57049;51.450;-2.516;2022-07-23T13:23:26;4.40;;;1.40;;
69775;SDS011;57049;51.450;-2.516;2022-07-23T13:25:51;5.57;;;1.50;;
69775;SDS011;57049;51.450;-2.516;2022-07-23T13:28:17;4.50;;;1.60;;
69775;SDS011;57049;51.450;-2.516;2022-07-23T13:30:44;4.57;;;1.00;;
69775;SDS011;57049;51.450;-2.516;2022-07-23T13:33:10;5.07;;;1.38;;
69775;SDS011;57049;51.450;-2.516;2022-07-23T13:35:36;4.25;;;1.40;;
69775;SDS011;57049;51.450;-2.516;2022-07-23T13:38:03;5.97;;;1.67;;
69775;SDS011;57049;51.450;-2.516;2022-07-23T13:40:32;4.90;;;1.37;;
69775;SDS011;57049;51.450;-2.516;2022-07-23T13:42:59;5.32;;;1.27;;
69775;SDS011;57049;51.450;-2.516;2022-07-23T13:45:24;3.87;;;1.17;;
69775;SDS011;57049;51.450;-2.516;2022-07-23T13:47:50;5.00;;;1.42;;
69775;SDS011;57049;51.450;-2.516;2022-07-23T13:50:15;5.63;;;1.30;;
69775;SDS011;57049;51.450;-2.516;2022-07-23T13:52:41;4.73;;;1.40;;
69775;SDS011;57049;51.450;-2.516;2022-07-23T13:55:07;5.03;;;1.40;;
69775;SDS011;57049;51.450;-2.516;2022-07-23T13:57:32;5.20;;;1.53;;
69775;SDS011;57049;51.450;-2.516;2022-07-23T13:59:58;5.28;;;1.70;;
69775;SDS011;57049;51.450;-2.516;2022-07-23T14:02:24;4.70;;;1.17;;
69775;SDS011;57049;51.450;-2.516;2022-07-23T14:04:50;7.20;;;1.20;;
69775;SDS011;57049;51.450;-2.516;2022-07-23T14:07:16;4.88;;;1.33;;
69775;SDS011;57049;51.450;-2.516;2022-07-23T14:09:42;4.95;;;1.23;;
69775;SDS011;57049;51.450;-2.516;2022-07-23T14:12:08;6.47;;;1.30;;
69775;SDS011;57049;51.450;-2.516;2022-07-23T14:14:34;4.22;;;1.25;;
69775;SDS011;57049;51.450;-2.516;2022-07-23T14:16:59;5.77;;;1.30;;
69775;SDS011;57049;51.450;-2.516;2022-07-23T14:19:25;4.63;;;1.33;;
69775;SDS011;57049;51.450;-2.516;2022-07-23T14:21:50;4.77;;;1.30;;
69775;SDS011;57049;51.450;-2.516;2022-07-23T14:24:16;3.92;;;1.20;;
69775;SDS011;57049;51.450;-2.516;2022-07-23T14:26:42;5.60;;;1.50;;
69775;SDS011;57049;51.450;-2.516;2022-07-23T14:29:08;4.50;;;1.50;;
69775;SDS011;57049;51.450;-2.516;2022-07-23T14:31:34;5.32;;;1.52;;
69775;SDS011;57049;51.450;-2.516;2022-07-23T14:34:00;4.87;;;1.70;;
69775;SDS011;57049;51.450;-2.516;2022-07-23T14:36:26;5.20;;;1.70;;
69775;SDS011;57049;51.450;-2.516;2022-07-23T14:38:52;5.20;;;1.50;;
69775;SDS011;57049;51.450;-2.516;2022-07-23T14:41:17;7.97;;;1.50;;
69775;SDS011;57049;51.450;-2.516;2022-07-23T14:43:43;5.07;;;1.63;;
69775;SDS011;57049;51.450;-2.516;2022-07-23T14:46:09;5.30;;;1.48;;
69775;SDS011;57049;51.450;-2.516;2022-07-23T14:48:36;5.80;;;1.60;;
69775;SDS011;57049;51.450;-2.516;2022-07-23T14:51:02;6.80;;;1.83;;
69775;SDS011;57049;51.450;-2.516;2022-07-23T14:53:28;4.75;;;1.70;;
69775;SDS011;57049;51.450;-2.516;2022-07-23T14:55:54;5.25;;;1.80;;
69775;SDS011;57049;51.450;-2.516;2022-07-23T14:58:21;4.90;;;1.80;;
69775;SDS011;57049;51.450;-2.516;2022-07-23T15:00:47;6.25;;;2.28;;
69775;SDS011;57049;51.450;-2.516;2022-07-23T15:03:13;6.70;;;1.70;;
69775;SDS011;57049;51.450;-2.516;2022-07-23T15:05:38;6.10;;;1.80;;
69775;SDS011;57049;51.450;-2.516;2022-07-23T15:08:04;6.47;;;1.97;;
69775;SDS011;57049;51.450;-2.516;2022-07-23T15:10:29;6.67;;;2.07;;
69775;SDS011;57049;51.450;-2.516;2022-07-23T15:12:55;5.70;;;2.05;;
69775;SDS011;57049;51.450;-2.516;2022-07-23T15:15:20;8.10;;;2.17;;
69775;SDS011;57049;51.450;-2.516;2022-07-23T15:17:46;6.80;;;1.93;;
69775;SDS011;57049;51.450;-2.516;2022-07-23T15:20:11;6.07;;;1.95;;
69775;SDS011;57049;51.450;-2.516;2022-07-23T15:22:37;6.80;;;1.90;;
69775;SDS011;57049;51.450;-2.516;2022-07-23T15:25:03;5.65;;;1.80;;
69775;SDS011;57049;51.450;-2.516;2022-07-23T15:27:29;8.63;;;2.33;;
69775;SDS011;57049;51.450;-2.516;2022-07-23T15:29:54;6.75;;;2.45;;
69775;SDS011;57049;51.450;-2.516;2022-07-23T15:32:19;7.20;;;1.93;;
69775;SDS011;57049;51.450;-2.516;2022-07-23T15:34:45;8.00;;;2.20;;
69775;SDS011;57049;51.450;-2.516;2022-07-23T15:37:10;8.97;;;2.17;;
69775;SDS011;57049;51.450;-2.516;2022-07-23T15:39:36;8.88;;;2.25;;
69775;SDS011;57049;51.450;-2.516;2022-07-23T15:42:02;5.03;;;1.70;;
69775;SDS011;57049;51.450;-2.516;2022-07-23T15:44:27;8.90;;;2.40;;
69775;SDS011;57049;51.450;-2.516;2022-07-23T15:46:53;6.10;;;1.97;;
69775;SDS011;57049;51.450;-2.516;2022-07-23T15:49:20;7.45;;;2.20;;